Flight Track Log - Related Links

Times and Time Zones

All times are in EDT time to prevent confusion due to time zone crossing. See the CHQ6101 flight status page for this flight to view local times or setup timezone preferences in your user account.

Time Position Orientation Groundspeed Altitude Reporting Facility
EDT Latitude Longitude Course Direction KTS MPH feet Rate Location/Type
Thu 02:18:36 PM 40.8000 -73.8500 37° Northeast 168 193 1,400  Level New York TRACON
Thu 02:19:30 PM 40.8500 -73.8000 37° Northeast 234 269 2,900 2,300 Climbing New York TRACON
Thu 02:20:36 PM 40.9167 -73.7500 30° Northeast 248 285 6,000 2,484 Climbing New York TRACON
Thu 02:23:05 PM 41.0575 -73.6339 32° Northeast 255 293 11,800 2,257 Climbing Boston Center
Thu 02:24:06 PM 41.1239 -73.5836 30° Northeast 270 311 13,900 1,918 Climbing Boston Center
Thu 02:25:07 PM 41.1919 -73.5328 29° Northeast 277 319 15,700 1,512 Climbing Boston Center
Thu 02:26:09 PM 41.2681 -73.4750 30° Northeast 289 333 17,000 1,220 Climbing Boston Center
Thu 02:27:10 PM 41.3425 -73.4186 30° Northeast 306 352 18,200 1,024 Climbing Boston Center
Thu 02:28:12 PM 41.4097 -73.3683 29° Northeast 328 377 19,100 1,073 Climbing Boston Center
Thu 02:29:13 PM 41.5136 -73.3569 North 316 364 20,400 1,131 Climbing Boston Center
Thu 02:30:14 PM 41.6019 -73.3553 North 323 372 21,400 1,024 Climbing Boston Center
Thu 02:31:16 PM 41.6961 -73.3550 360° North 334 384 22,500 1,024 Climbing Boston Center
Thu 02:32:17 PM 41.7900 -73.3544 360° North 337 388 23,500 984 Climbing Boston Center
Thu 02:33:18 PM 41.8861 -73.3533 360° North 342 394 24,500 1,024 Climbing Boston Center
Thu 02:34:20 PM 41.9811 -73.3525 360° North 342 394 25,600 1,024 Climbing Boston Center
Thu 02:35:21 PM 42.0767 -73.3397 North 344 396 26,600 1,122 Climbing Boston Center
Thu 02:36:23 PM 42.1692 -73.2225 43° Northeast 390 449 27,900 1,122 Climbing Boston Center
Thu 02:37:24 PM 42.2414 -73.1106 49° Northeast 398 458 28,900 1,033 Climbing Boston Center
Thu 02:38:25 PM 42.3122 -73.0003 49° Northeast 396 456 30,000 1,024 Climbing Boston Center
Thu 02:39:27 PM 42.3881 -72.8817 49° Northeast 396 456 31,000 488 Climbing Boston Center
Thu 02:40:28 PM 42.4625 -72.7669 49° Northeast 405 466 31,000  Level Boston Center
Thu 02:41:30 PM 42.5375 -72.6472 50° Northeast 417 480 31,000  Level Boston Center
Thu 02:42:31 PM 42.6153 -72.5231 50° Northeast 409 471 31,000  Level Boston Center
Thu 02:43:32 PM 42.6908 -72.4050 49° Northeast 410 472 31,000  Level Boston Center
Thu 02:44:34 PM 42.7653 -72.2836 50° Northeast 414 476 31,000  Level Boston Center
Thu 02:45:35 PM 42.8414 -72.1656 49° Northeast 414 476 31,000  Level Boston Center
Thu 02:46:36 PM 42.9161 -72.0442 50° Northeast 415 478 31,000  Level Boston Center
Thu 02:47:38 PM 42.9914 -71.9211 50° Northeast 418 481 31,000 -341 Level Boston Center
Thu 02:48:39 PM 43.0661 -71.8014 49° Northeast 419 482 30,300 -836 Descending Boston Center
Thu 02:49:40 PM 43.1369 -71.6858 50° Northeast 400 460 29,300 -634 Descending Boston Center
Thu 02:50:42 PM 43.2225 -71.5461 50° Northeast 399 459 29,000 -146 Descending Boston Center
Thu 02:51:43 PM 43.2967 -71.4258 50° Northeast 403 464 29,000  Level Boston Center
Thu 02:52:45 PM 43.3725 -71.3086 48° Northeast 411 473 29,000  Level Boston Center
Thu 02:53:46 PM 43.4442 -71.1867 51° Northeast 411 473 29,000  Level Boston Center
Thu 02:54:47 PM 43.5189 -71.0658 50° Northeast 411 473 29,000  Level Boston Center
Thu 02:55:49 PM 43.5894 -70.9386 53° Northeast 413 475 29,000  Level Boston Center
Thu 02:56:50 PM 43.6678 -70.8078 50° Northeast 417 480 29,000  Level Boston Center
Thu 02:57:52 PM 43.7428 -70.6811 51° Northeast 420 483 29,000  Level Boston Center
Thu 02:58:53 PM 43.8189 -70.5522 51° Northeast 425 489 29,000  Level Boston Center
Thu 02:59:55 PM 43.8956 -70.4225 51° Northeast 430 495 29,000 -683 Level Boston Center
Thu 03:00:56 PM 43.9731 -70.2911 51° Northeast 435 501 27,600 -2,016 Descending Boston Center
Thu 03:01:57 PM 44.0639 -70.1356 51° Northeast 431 496 24,900 -2,488 Descending Boston Center
Thu 03:02:59 PM 44.1383 -70.0067 51° Northeast 430 495 22,500 -2,293 Descending Boston Center
Thu 03:04:00 PM 44.2128 -69.8800 51° Northeast 424 488 20,200 -2,439 Descending Boston Center
Thu 03:05:02 PM 44.2847 -69.7547 51° Northeast 398 458 17,500 -2,390 Descending Boston Center
Thu 03:06:03 PM 44.3442 -69.6414 54° Northeast 379 436 15,300 -2,262 Descending Boston Center
Thu 03:07:04 PM 44.3850 -69.5075 67° East 375 432 12,900 -2,098 Descending Boston Center
Thu 03:08:06 PM 44.4231 -69.3839 67° East 352 405 11,000 -1,366 Descending Boston Center
Thu 03:09:07 PM 44.4578 -69.2681 67° East 327 376 10,100 -1,171 Descending Boston Center
Thu 03:10:09 PM 44.4864 -69.1711 67° East 278 320 8,600 -1,463 Descending Boston Center
Thu 03:11:10 PM 44.5139 -69.0789 67° East 264 304 7,100 -1,902 Descending Boston Center
Thu 03:12:12 PM 44.5431 -68.9786 68° East 238 274 4,700 -2,146 Descending Boston Center
Thu 03:13:13 PM 44.5694 -68.8911 67° East 238 274 2,700 -1,230 Descending Boston Center
Thu 03:14:14 PM 44.6017 -68.8144 59° Northeast 237 273 2,200 -341 Descending Boston Center
Thu 03:15:16 PM 44.6533 -68.7678 33° Northeast 226 260 2,000 -98 Descending Boston Center
Thu 03:16:17 PM 44.7097 -68.7431 17° North 216 249 2,000 -246 Level Boston Center
Thu 03:17:18 PM 44.7547 -68.7533 351° North 191 220 1,500 -634 Descending Boston Center
Thu 03:18:20 PM 44.7819 -68.7928 314° West 157 181 700 -537 Descending Boston Center
Thu 03:19:21 PM 44.8064 -68.8278 315° West 150 173 400 -295 Descending Boston Center

Login

Don't have an account? Register now (free) for customized features, flight alerts, and more!